createdAt,value
2018-05-19T00:00:59.575Z,9.13
2018-05-19T00:03:27.089Z,10.73
2018-05-19T00:05:54.600Z,11.10
2018-05-19T00:08:22.070Z,12.60
2018-05-19T00:10:49.534Z,9.23
2018-05-19T00:13:17.011Z,8.50
2018-05-19T00:15:44.475Z,10.93
2018-05-19T00:18:11.996Z,9.60
2018-05-19T00:20:39.525Z,9.33
2018-05-19T00:23:07.017Z,10.07
2018-05-19T00:25:34.479Z,8.70
2018-05-19T00:28:01.944Z,8.90
2018-05-19T00:30:29.411Z,11.90
2018-05-19T00:32:56.868Z,8.23
2018-05-19T00:35:24.579Z,9.30
2018-05-19T00:37:52.056Z,10.60
2018-05-19T00:40:19.523Z,9.17
2018-05-19T00:42:47.024Z,10.87
2018-05-19T00:45:14.505Z,11.77
2018-05-19T00:47:41.982Z,8.30
2018-05-19T00:50:09.482Z,9.83
2018-05-19T00:52:36.946Z,14.40
2018-05-19T00:55:04.428Z,9.77
2018-05-19T00:57:31.942Z,9.27
2018-05-19T00:59:59.405Z,10.73
2018-05-19T01:02:28.107Z,10.73
2018-05-19T01:04:55.611Z,10.80
2018-05-19T01:07:23.079Z,9.63
2018-05-19T01:09:50.531Z,9.37
2018-05-19T01:12:18.006Z,11.07
2018-05-19T01:14:45.483Z,11.10
2018-05-19T01:17:12.967Z,9.20
2018-05-19T01:19:40.454Z,9.30
2018-05-19T01:22:07.927Z,9.57
2018-05-19T01:24:35.386Z,10.50
2018-05-19T01:27:02.850Z,10.20
2018-05-19T01:29:30.330Z,13.33
2018-05-19T01:31:57.778Z,8.67
2018-05-19T01:34:25.338Z,13.73
2018-05-19T01:36:52.810Z,15.00
2018-05-19T01:39:20.332Z,10.83
2018-05-19T01:41:47.811Z,14.90
2018-05-19T01:44:15.279Z,9.37
2018-05-19T01:46:42.735Z,11.63
2018-05-19T01:49:10.219Z,10.63
2018-05-19T01:51:37.748Z,11.37
2018-05-19T01:54:06.610Z,13.97
2018-05-19T01:56:34.212Z,9.40
2018-05-19T01:59:01.875Z,10.93
2018-05-19T02:01:29.333Z,10.57
2018-05-19T02:03:56.818Z,12.00
2018-05-19T02:06:24.350Z,11.10
2018-05-19T02:08:51.836Z,9.57
2018-05-19T02:11:19.325Z,11.03
2018-05-19T02:13:46.897Z,10.23
2018-05-19T02:16:15.182Z,10.30
2018-05-19T02:18:42.716Z,10.37
2018-05-19T02:21:10.170Z,11.87
2018-05-19T02:23:37.705Z,12.53
2018-05-19T02:26:05.137Z,10.90
2018-05-19T02:28:32.613Z,10.43
2018-05-19T02:31:00.362Z,10.40
2018-05-19T02:33:27.857Z,14.20
2018-05-19T02:35:55.328Z,13.40
2018-05-19T02:38:22.803Z,12.83
2018-05-19T02:40:50.287Z,11.60
2018-05-19T02:43:17.766Z,11.23
2018-05-19T02:45:45.266Z,11.50
2018-05-19T02:48:12.783Z,20.60
2018-05-19T02:50:40.268Z,15.40
2018-05-19T02:53:07.758Z,20.67
2018-05-19T02:55:35.239Z,15.73
2018-05-19T02:58:05.639Z,15.07
2018-05-19T03:00:33.115Z,12.57
2018-05-19T03:03:00.583Z,13.17
2018-05-19T03:05:28.083Z,15.27
2018-05-19T03:07:55.543Z,13.67
2018-05-19T03:10:23.030Z,13.87
2018-05-19T03:12:50.511Z,13.93
2018-05-19T03:15:17.974Z,19.67
2018-05-19T03:17:45.469Z,17.00
2018-05-19T03:20:12.989Z,15.33
2018-05-19T03:22:40.488Z,21.80
2018-05-19T03:25:07.975Z,25.60
2018-05-19T03:27:35.934Z,16.67
2018-05-19T03:30:03.438Z,16.33
2018-05-19T03:32:30.954Z,17.63
2018-05-19T03:34:58.421Z,18.03
2018-05-19T03:37:25.891Z,23.47
2018-05-19T03:39:53.434Z,23.10
2018-05-19T03:42:20.913Z,17.93
2018-05-19T03:44:48.427Z,17.40
2018-05-19T03:47:15.908Z,22.93
2018-05-19T03:49:43.400Z,20.47
2018-05-19T03:52:10.888Z,16.70
2018-05-19T03:54:39.045Z,20.23
2018-05-19T03:57:18.218Z,20.27
2018-05-19T04:02:47.948Z,23.70
2018-05-19T04:05:15.448Z,19.80
2018-05-19T04:07:42.915Z,26.20
2018-05-19T04:10:10.390Z,20.80
2018-05-19T04:12:37.869Z,20.23
2018-05-19T04:15:05.355Z,19.37
2018-05-19T04:17:32.841Z,23.97
2018-05-19T04:20:00.307Z,27.77
2018-05-19T04:22:27.799Z,27.20
2018-05-19T04:24:55.265Z,23.87
2018-05-19T04:27:22.743Z,26.23
2018-05-19T04:29:50.239Z,28.40
2018-05-19T04:32:17.700Z,30.47
2018-05-19T04:34:45.198Z,28.17
2018-05-19T04:37:12.714Z,28.27
2018-05-19T04:39:40.179Z,28.17
2018-05-19T04:42:07.665Z,23.83
2018-05-19T04:44:35.150Z,29.47
2018-05-19T04:47:02.613Z,29.03
2018-05-19T04:49:30.843Z,27.60
2018-05-19T04:51:58.304Z,34.33
2018-05-19T04:54:25.769Z,31.97
2018-05-19T04:56:53.355Z,31.00
2018-05-19T04:59:20.754Z,39.97
2018-05-19T05:01:48.234Z,37.53
2018-05-19T05:04:15.715Z,36.23
2018-05-19T05:06:43.179Z,40.40
2018-05-19T05:09:10.657Z,39.33
2018-05-19T05:11:38.169Z,35.87
2018-05-19T05:14:05.736Z,38.60
2018-05-19T05:16:33.257Z,43.70
2018-05-19T05:19:00.723Z,36.70
2018-05-19T05:21:28.224Z,34.00
2018-05-19T05:23:55.681Z,35.03
2018-05-19T05:26:23.166Z,29.10
2018-05-19T05:28:50.643Z,35.00
2018-05-19T05:31:18.117Z,36.70
2018-05-19T05:33:45.594Z,29.13
2018-05-19T05:36:13.055Z,58.93
2018-05-19T05:38:40.537Z,36.03
2018-05-19T05:41:08.006Z,27.83
2018-05-19T05:43:35.473Z,36.13
2018-05-19T05:46:02.963Z,24.40
2018-05-19T05:48:30.435Z,33.97
2018-05-19T05:50:57.898Z,25.30
2018-05-19T05:53:25.386Z,25.17
2018-05-19T05:55:52.848Z,27.13
2018-05-19T05:58:20.330Z,23.60
2018-05-19T06:00:47.833Z,35.10
2018-05-19T06:03:15.298Z,25.43
2018-05-19T06:05:42.755Z,26.50
2018-05-19T06:08:10.262Z,23.80
2018-05-19T06:10:37.774Z,27.17
2018-05-19T06:13:05.242Z,21.20
2018-05-19T06:15:32.718Z,18.97
2018-05-19T06:18:00.199Z,22.07
2018-05-19T06:20:27.691Z,25.77
2018-05-19T06:22:55.178Z,22.63
2018-05-19T06:25:22.678Z,27.27
2018-05-19T06:27:50.166Z,25.53
2018-05-19T06:30:17.649Z,26.70
2018-05-19T06:32:45.119Z,27.00
2018-05-19T06:35:12.606Z,22.67
2018-05-19T06:37:40.103Z,22.60
2018-05-19T06:40:07.587Z,25.90
2018-05-19T06:42:35.076Z,22.13
2018-05-19T06:45:02.548Z,34.73
2018-05-19T06:47:30.044Z,29.73
2018-05-19T06:49:57.525Z,28.00
2018-05-19T06:52:25.000Z,26.33
2018-05-19T06:54:52.538Z,20.97
2018-05-19T06:57:20.027Z,23.53
2018-05-19T06:59:47.524Z,30.93
2018-05-19T07:02:15.015Z,32.80
2018-05-19T07:04:42.522Z,27.80
2018-05-19T07:07:10.053Z,26.07
2018-05-19T07:09:37.571Z,28.20
2018-05-19T07:12:05.052Z,30.80
2018-05-19T07:14:32.567Z,28.80
2018-05-19T07:17:00.042Z,32.87
2018-05-19T07:19:27.574Z,26.80
2018-05-19T07:21:55.063Z,23.93
2018-05-19T07:24:22.548Z,26.90
2018-05-19T07:26:50.032Z,25.30
2018-05-19T07:29:17.503Z,29.80
2018-05-19T07:31:44.986Z,30.80
2018-05-19T07:34:12.458Z,28.83
2018-05-19T07:36:39.946Z,31.70
2018-05-19T07:39:07.421Z,25.93
2018-05-19T07:41:34.891Z,23.53
2018-05-19T07:44:02.439Z,27.60
2018-05-19T07:46:29.996Z,26.57
2018-05-19T07:48:57.606Z,34.63
2018-05-19T07:51:25.101Z,31.90
2018-05-19T07:53:52.573Z,35.30
2018-05-19T07:56:20.086Z,30.23
2018-05-19T07:58:47.546Z,27.53
2018-05-19T08:01:15.001Z,34.77
2018-05-19T08:03:42.494Z,30.93
2018-05-19T08:06:09.991Z,33.73
2018-05-19T08:08:37.475Z,37.17
2018-05-19T08:11:04.984Z,30.67
2018-05-19T08:13:32.451Z,32.10
2018-05-19T08:15:59.923Z,34.40
2018-05-19T08:18:27.405Z,32.90
2018-05-19T08:20:54.896Z,29.80
2018-05-19T08:23:22.406Z,31.63
2018-05-19T08:25:49.903Z,26.80
2018-05-19T08:28:17.382Z,31.93
2018-05-19T08:30:44.842Z,26.30
2018-05-19T08:33:12.355Z,27.47
2018-05-19T08:35:39.819Z,24.60
2018-05-19T08:38:07.295Z,30.47
2018-05-19T08:40:34.793Z,24.75
2018-05-19T08:43:02.273Z,24.33
2018-05-19T08:45:29.759Z,26.30
2018-05-19T08:47:57.619Z,22.93
2018-05-19T08:50:25.211Z,26.50
2018-05-19T08:52:52.624Z,22.43
2018-05-19T08:55:20.120Z,27.10
2018-05-19T08:57:47.619Z,25.47
2018-05-19T09:00:15.112Z,25.37
2018-05-19T09:02:42.593Z,26.53
2018-05-19T09:05:10.082Z,31.77
2018-05-19T09:07:37.577Z,23.60
2018-05-19T09:10:05.091Z,27.10
2018-05-19T09:12:32.574Z,27.67
2018-05-19T09:15:00.059Z,36.33
2018-05-19T09:17:27.541Z,29.70
2018-05-19T09:19:55.032Z,28.30
2018-05-19T09:22:22.535Z,22.67
2018-05-19T09:24:50.063Z,24.93
2018-05-19T09:27:17.542Z,23.97
2018-05-19T09:29:45.063Z,29.03
2018-05-19T09:32:12.609Z,30.40
2018-05-19T09:34:40.127Z,25.13
2018-05-19T09:37:07.613Z,31.17
2018-05-19T09:39:35.106Z,23.80
2018-05-19T09:42:02.585Z,27.90
2018-05-19T09:44:30.069Z,26.90
2018-05-19T09:46:57.542Z,23.40
2018-05-19T09:49:25.034Z,29.50
2018-05-19T09:51:52.538Z,29.73
2018-05-19T09:54:20.019Z,26.20
2018-05-19T09:56:47.502Z,22.73
2018-05-19T09:59:15.013Z,30.30
2018-05-19T10:01:42.514Z,29.00
2018-05-19T10:04:10.058Z,25.10
2018-05-19T10:06:37.591Z,22.63
2018-05-19T10:09:06.071Z,22.37
2018-05-19T10:11:33.717Z,27.23
2018-05-19T10:14:01.149Z,30.03
2018-05-19T10:16:28.670Z,22.90
2018-05-19T10:18:56.348Z,29.73
2018-05-19T10:21:23.851Z,27.83
2018-05-19T10:23:51.357Z,21.87
2018-05-19T10:26:18.889Z,22.40
2018-05-19T10:28:46.372Z,28.77
2018-05-19T10:31:13.861Z,19.70
2018-05-19T10:33:41.339Z,20.77
2018-05-19T10:36:09.405Z,24.77
2018-05-19T10:38:36.889Z,24.97
2018-05-19T10:41:04.389Z,19.37
2018-05-19T10:43:31.891Z,23.53
2018-05-19T10:45:59.372Z,22.23
2018-05-19T10:48:26.865Z,19.87
2018-05-19T10:50:54.345Z,22.80
2018-05-19T10:53:21.849Z,26.63
2018-05-19T10:55:49.344Z,23.60
2018-05-19T10:58:16.803Z,22.47
2018-05-19T11:00:44.991Z,22.03
2018-05-19T11:03:12.558Z,22.23
2018-05-19T11:05:40.164Z,21.17
2018-05-19T11:08:07.688Z,25.57
2018-05-19T11:10:35.182Z,23.10
2018-05-19T11:13:02.637Z,21.13
2018-05-19T11:15:30.106Z,22.23
2018-05-19T11:17:57.594Z,23.40
2018-05-19T11:20:25.079Z,20.10
2018-05-19T11:22:52.545Z,24.27
2018-05-19T11:25:20.118Z,19.87
2018-05-19T11:27:47.612Z,17.43
2018-05-19T11:30:15.080Z,23.83
2018-05-19T11:32:42.585Z,23.80
2018-05-19T11:35:10.070Z,22.30
2018-05-19T11:37:37.524Z,16.87
2018-05-19T11:40:05.100Z,24.93
2018-05-19T11:42:32.637Z,16.30
2018-05-19T11:45:00.099Z,19.07
2018-05-19T11:47:27.579Z,11.37
2018-05-19T11:49:55.070Z,11.00
2018-05-19T11:52:22.602Z,11.80
2018-05-19T11:54:50.151Z,14.20
2018-05-19T11:57:17.612Z,14.60
2018-05-19T11:59:45.215Z,20.97
2018-05-19T12:02:12.753Z,14.63
2018-05-19T12:04:40.232Z,17.20
2018-05-19T12:07:07.705Z,17.77
2018-05-19T12:09:35.201Z,20.00
2018-05-19T12:12:02.790Z,12.83
2018-05-19T12:14:30.195Z,13.90
2018-05-19T12:16:57.701Z,10.60
2018-05-19T12:19:25.171Z,11.63
2018-05-19T12:21:52.668Z,11.43
2018-05-19T12:24:20.172Z,13.07
2018-05-19T12:26:47.632Z,11.97
2018-05-19T12:29:15.083Z,9.70
2018-05-19T12:31:42.554Z,11.83
2018-05-19T12:34:10.017Z,11.47
2018-05-19T12:36:37.496Z,18.70
2018-05-19T12:39:05.727Z,12.90
2018-05-19T12:41:33.207Z,22.83
2018-05-19T12:44:00.653Z,11.87
2018-05-19T12:46:28.138Z,10.90
2018-05-19T12:48:55.652Z,10.20
2018-05-19T12:51:23.085Z,13.80
2018-05-19T12:53:50.606Z,12.23
2018-05-19T12:56:18.105Z,13.07
2018-05-19T12:58:45.574Z,13.17
2018-05-19T13:01:13.185Z,14.10
2018-05-19T13:03:40.664Z,16.20
2018-05-19T13:06:08.147Z,15.43
2018-05-19T13:08:35.602Z,9.27
2018-05-19T13:11:03.065Z,9.40
2018-05-19T13:13:30.530Z,13.53
2018-05-19T13:15:57.994Z,10.10
2018-05-19T13:18:25.456Z,9.20
2018-05-19T13:20:52.907Z,7.50
2018-05-19T13:23:20.451Z,17.37
2018-05-19T13:25:47.852Z,11.27
2018-05-19T13:28:15.310Z,9.37
2018-05-19T13:30:42.779Z,7.17
2018-05-19T13:33:10.236Z,6.90
2018-05-19T13:35:37.702Z,8.87
2018-05-19T13:38:05.198Z,8.47
2018-05-19T13:40:32.707Z,11.40
2018-05-19T13:43:00.179Z,10.27
2018-05-19T13:45:27.679Z,11.27
2018-05-19T13:47:55.134Z,8.50
2018-05-19T13:50:22.582Z,9.97
2018-05-19T13:52:50.042Z,8.07
2018-05-19T13:55:17.509Z,7.17
2018-05-19T13:57:44.969Z,8.07
2018-05-19T14:00:12.544Z,7.33
2018-05-19T14:02:39.998Z,6.77
2018-05-19T14:05:07.526Z,7.33
2018-05-19T14:07:35.018Z,14.10
2018-05-19T14:10:02.504Z,8.53
2018-05-19T14:12:29.978Z,11.47
2018-05-19T14:14:57.425Z,6.57
2018-05-19T14:17:24.899Z,8.23
2018-05-19T14:19:52.391Z,7.20
2018-05-19T14:22:19.878Z,6.77
2018-05-19T14:24:47.502Z,12.93
2018-05-19T14:27:14.962Z,7.50
2018-05-19T14:29:42.431Z,6.37
2018-05-19T14:32:09.923Z,6.20
2018-05-19T14:34:37.462Z,7.97
2018-05-19T14:37:04.929Z,6.67
2018-05-19T14:39:32.370Z,8.50
2018-05-19T14:41:59.879Z,6.17
2018-05-19T14:44:27.342Z,6.83
2018-05-19T14:46:54.807Z,6.23
2018-05-19T14:49:22.283Z,7.90
2018-05-19T14:51:49.764Z,6.20
2018-05-19T14:54:17.233Z,7.07
2018-05-19T14:56:44.718Z,6.17
2018-05-19T14:59:12.188Z,5.80
2018-05-19T15:01:39.641Z,7.93
2018-05-19T15:04:07.121Z,7.30
2018-05-19T15:06:34.597Z,5.27
2018-05-19T15:09:02.091Z,5.97
2018-05-19T15:11:29.570Z,6.63
2018-05-19T15:13:57.084Z,8.23
2018-05-19T15:16:24.568Z,10.53
2018-05-19T15:18:52.099Z,5.90
2018-05-19T15:21:19.541Z,6.23
2018-05-19T15:23:47.035Z,5.80
2018-05-19T15:26:14.531Z,5.40
2018-05-19T15:28:42.050Z,5.63
2018-05-19T15:31:09.528Z,6.53
2018-05-19T15:33:37.078Z,7.17
2018-05-19T15:36:04.571Z,5.47
2018-05-19T15:38:32.129Z,5.40
2018-05-19T15:40:59.518Z,6.50
2018-05-19T15:43:26.969Z,5.97
2018-05-19T15:45:54.430Z,7.07
2018-05-19T15:48:21.979Z,9.63
2018-05-19T15:50:49.439Z,5.90
2018-05-19T15:53:16.912Z,7.03
2018-05-19T15:55:44.384Z,5.80
2018-05-19T15:58:11.852Z,9.97
2018-05-19T16:00:39.328Z,7.07
2018-05-19T16:03:06.874Z,6.40
2018-05-19T16:05:34.345Z,5.43
2018-05-19T16:08:01.804Z,5.77
2018-05-19T16:10:29.375Z,5.80
2018-05-19T16:12:56.977Z,6.07
2018-05-19T16:15:24.455Z,7.63
2018-05-19T16:17:51.986Z,6.50
2018-05-19T16:20:19.468Z,6.73
2018-05-19T16:22:46.919Z,6.00
2018-05-19T16:25:14.473Z,7.27
2018-05-19T16:27:41.934Z,6.67
2018-05-19T16:30:09.398Z,7.43
2018-05-19T16:32:36.960Z,7.97
2018-05-19T16:35:04.385Z,5.80
2018-05-19T16:37:31.929Z,6.60
2018-05-19T16:39:59.438Z,5.83
2018-05-19T16:42:26.984Z,6.43
2018-05-19T16:44:54.457Z,6.97
2018-05-19T16:47:21.922Z,8.30
2018-05-19T16:49:49.399Z,6.80
2018-05-19T16:52:16.857Z,7.13
2018-05-19T16:54:44.359Z,7.97
2018-05-19T16:57:11.815Z,6.50
2018-05-19T16:59:39.293Z,9.73
2018-05-19T17:02:06.776Z,7.40
2018-05-19T17:04:34.245Z,7.50
2018-05-19T17:07:01.742Z,9.23
2018-05-19T17:09:29.244Z,9.27
2018-05-19T17:11:56.701Z,8.00
2018-05-19T17:14:24.178Z,7.70
2018-05-19T17:16:51.683Z,8.10
2018-05-19T17:19:19.155Z,8.27
2018-05-19T17:21:46.630Z,11.63
2018-05-19T17:24:14.090Z,9.47
2018-05-19T17:26:41.563Z,13.17
2018-05-19T17:29:09.025Z,10.50
2018-05-19T17:31:36.510Z,10.03
2018-05-19T17:34:04.046Z,9.60
2018-05-19T17:36:31.542Z,7.73
2018-05-19T17:38:59.014Z,7.40
2018-05-19T17:41:26.479Z,15.80
2018-05-19T17:43:53.942Z,8.07
2018-05-19T17:46:21.406Z,13.40
2018-05-19T17:48:48.862Z,12.70
2018-05-19T17:51:16.348Z,12.30
2018-05-19T17:53:43.833Z,7.70
2018-05-19T17:56:11.356Z,12.50
2018-05-19T17:58:38.861Z,9.10
2018-05-19T18:01:06.341Z,10.00
2018-05-19T18:03:33.816Z,9.30
2018-05-19T18:06:01.321Z,9.53
2018-05-19T18:08:29.466Z,9.17
2018-05-19T18:10:56.999Z,9.27
2018-05-19T18:13:24.624Z,13.80
2018-05-19T18:15:52.106Z,8.97
2018-05-19T18:18:19.698Z,13.73
2018-05-19T18:20:47.195Z,15.13
2018-05-19T18:23:14.676Z,10.67
2018-05-19T18:25:42.138Z,9.97
2018-05-19T18:28:09.604Z,13.43
2018-05-19T18:30:37.092Z,11.93
2018-05-19T18:33:04.550Z,15.00
2018-05-19T18:35:32.063Z,16.40
2018-05-19T18:37:59.531Z,12.03
2018-05-19T18:40:27.013Z,11.50
2018-05-19T18:42:54.478Z,13.00
2018-05-19T18:45:22.020Z,11.03
2018-05-19T18:47:49.519Z,10.80
2018-05-19T18:50:17.003Z,12.80
2018-05-19T18:52:56.347Z,11.17
2018-05-19T18:55:23.798Z,10.83
2018-05-19T18:57:56.100Z,10.90
2018-05-19T19:00:23.993Z,13.93
2018-05-19T19:02:51.447Z,12.60
2018-05-19T19:05:18.929Z,11.13
2018-05-19T19:07:46.431Z,17.80
2018-05-19T19:10:13.986Z,13.57
2018-05-19T19:12:41.494Z,10.73
2018-05-19T19:15:09.010Z,15.37
2018-05-19T19:17:36.578Z,17.77
2018-05-19T19:20:04.159Z,11.20
2018-05-19T19:22:31.678Z,13.30
2018-05-19T19:24:59.219Z,11.43
2018-05-19T19:27:26.747Z,15.60
2018-05-19T19:29:54.223Z,11.70
2018-05-19T19:32:21.852Z,13.40
2018-05-19T19:34:49.379Z,14.67
2018-05-19T19:37:16.874Z,14.90
2018-05-19T19:39:44.362Z,12.10
2018-05-19T19:42:11.858Z,17.73
2018-05-19T19:44:39.341Z,14.97
2018-05-19T19:47:06.808Z,12.00
2018-05-19T19:49:34.294Z,17.73
2018-05-19T19:52:01.809Z,15.63
2018-05-19T19:54:29.298Z,12.07
2018-05-19T19:56:56.815Z,15.37
2018-05-19T19:59:30.682Z,15.20
2018-05-19T20:01:58.087Z,17.47
2018-05-19T20:04:25.710Z,12.73
2018-05-19T20:06:53.203Z,14.83
2018-05-19T20:09:20.772Z,13.80
2018-05-19T20:11:48.285Z,12.30
2018-05-19T20:14:15.747Z,11.27
2018-05-19T20:16:43.247Z,12.73
2018-05-19T20:19:10.814Z,12.63
2018-05-19T20:21:38.570Z,11.53
2018-05-19T20:24:06.103Z,11.13
2018-05-19T20:26:33.593Z,12.23
2018-05-19T20:29:02.140Z,13.10
2018-05-19T20:31:29.846Z,13.20
2018-05-19T20:33:57.337Z,14.80
2018-05-19T20:36:24.826Z,14.57
2018-05-19T20:38:53.008Z,13.13
2018-05-19T20:41:21.023Z,10.40
2018-05-19T20:43:48.779Z,12.17
2018-05-19T20:46:16.325Z,12.87
2018-05-19T20:48:44.077Z,12.00
2018-05-19T20:51:11.570Z,14.10
2018-05-19T20:53:39.107Z,13.07
2018-05-19T20:56:06.589Z,10.93
2018-05-19T20:58:34.083Z,12.30
2018-05-19T21:01:01.707Z,14.03
2018-05-19T21:03:30.950Z,10.50
2018-05-19T21:05:58.483Z,12.23
2018-05-19T21:08:26.002Z,16.33
2018-05-19T21:10:56.902Z,11.47
2018-05-19T21:13:26.698Z,13.50
2018-05-19T21:15:54.707Z,10.70
2018-05-19T21:18:22.815Z,12.83
2018-05-19T21:20:50.342Z,11.20
2018-05-19T21:23:17.831Z,12.27
2018-05-19T21:25:46.863Z,12.67
2018-05-19T21:28:15.575Z,13.70
2018-05-19T21:30:43.294Z,12.30
2018-05-19T21:33:10.783Z,12.33
2018-05-19T21:35:42.872Z,12.57
2018-05-19T21:38:10.383Z,14.70
2018-05-19T21:40:38.092Z,11.20
2018-05-19T21:43:08.697Z,14.60
2018-05-19T21:45:36.244Z,12.60
2018-05-19T21:48:03.767Z,13.80
2018-05-19T21:50:31.416Z,12.43
2018-05-19T21:52:59.000Z,14.17
2018-05-19T21:55:26.450Z,12.00
2018-05-19T21:57:53.942Z,18.83
2018-05-19T22:00:22.062Z,15.30
2018-05-19T22:02:49.539Z,14.37
2018-05-19T22:05:17.050Z,15.03
2018-05-19T22:07:44.567Z,15.37
2018-05-19T22:10:12.287Z,14.23
2018-05-19T22:12:41.277Z,18.30
2018-05-19T22:15:09.244Z,15.17
2018-05-19T22:17:37.916Z,14.70
2018-05-19T22:20:05.453Z,14.30
2018-05-19T22:22:32.958Z,13.40
2018-05-19T22:25:00.425Z,16.70
2018-05-19T22:27:27.973Z,15.10
2018-05-19T22:29:55.514Z,14.27
2018-05-19T22:32:22.995Z,13.93
2018-05-19T22:34:50.476Z,12.60
2018-05-19T22:37:17.946Z,13.80
2018-05-19T22:39:45.423Z,14.63
2018-05-19T22:42:12.892Z,25.60
2018-05-19T22:44:40.403Z,15.17
2018-05-19T22:47:07.935Z,18.90
2018-05-19T22:49:35.375Z,12.87
2018-05-19T22:52:02.904Z,16.63
2018-05-19T22:54:30.378Z,13.87
2018-05-19T22:56:57.837Z,13.90
2018-05-19T22:59:25.317Z,15.97
2018-05-19T23:01:52.860Z,20.50
2018-05-19T23:04:20.340Z,12.80
2018-05-19T23:06:47.858Z,14.53
2018-05-19T23:09:15.323Z,11.83
2018-05-19T23:11:42.785Z,15.20
2018-05-19T23:14:10.293Z,14.60
2018-05-19T23:16:37.780Z,12.20
2018-05-19T23:19:05.259Z,13.23
2018-05-19T23:21:32.769Z,12.97
2018-05-19T23:24:00.232Z,12.40
2018-05-19T23:26:27.696Z,17.80
2018-05-19T23:28:55.185Z,12.83
2018-05-19T23:31:22.655Z,20.03
2018-05-19T23:33:50.414Z,11.43
2018-05-19T23:36:17.894Z,11.53
2018-05-19T23:38:45.451Z,14.00
2018-05-19T23:41:13.005Z,18.27
2018-05-19T23:43:40.574Z,13.47
2018-05-19T23:46:08.029Z,13.73
2018-05-19T23:48:35.517Z,17.33
2018-05-19T23:51:03.087Z,14.47
2018-05-19T23:53:30.561Z,13.70
2018-05-19T23:55:58.034Z,12.20
2018-05-19T23:58:25.507Z,12.33
